Latest Weather Observations for Barrow Island

IDW60801

Issued at 7:03 pm WST Sunday 26 April 2015 (issued every 30 minutes, with the page automatically refreshed every 10 minutes)

About weather observations | Map of weather stations | Latest weather observations for WA | Other Formats
Station Details ID: 005094 Name: BARROW ISLAND AIRPORT Lat: -20.88 Lon: 115.41 Height: 6.4 m
Data from the previous 72 hours. | See also: Recent months at Barrow Island
Date/Time
WST
Temp
°C
App
Temp
°C
Dew
Point
Rel
Hum
%
Delta-T
°C
Wind Press
QNH
hPa
Press
MSL
hPa
Rain
since 9 am
mm
Dir
 
Spd
km/h
Gust
km/h
Spd
kts
Gust
kts
26/07:00pm 26.3 24.3 18.4 61 5.0 ENE 26 30 14 16 1015.1 - 0.0
26/06:30pm 26.5 23.5 16.7 55 6.1 ENE 28 30 15 16 1014.9 - 0.0
26/06:00pm 26.6 22.7 16.5 54 6.2 ENE 32 37 17 20 1014.4 1014.4 0.0
26/05:30pm 26.6 22.4 16.2 52 6.4 ENE 33 39 18 21 1014.0 - 0.0
26/05:00pm 26.8 22.2 16.1 52 6.6 ENE 35 39 19 21 1013.6 - 0.0
26/04:30pm 26.8 21.2 14.5 46 7.4 ENE 37 44 20 24 1013.4 - 0.0
26/04:00pm 26.9 21.2 15.3 49 7.0 ENE 39 46 21 25 1013.3 - 0.0
26/03:30pm 27.0 20.7 14.7 47 7.4 ENE 41 48 22 26 1013.2 - 0.0
26/03:00pm 26.9 21.0 14.6 46 7.4 ENE 39 50 21 27 1013.2 1013.2 0.0
26/02:30pm 26.9 20.3 13.6 44 7.9 ENE 41 56 22 30 1013.1 - 0.0
26/02:00pm 27.1 20.3 14.8 47 7.4 ENE 44 52 24 28 1013.2 - 0.0
26/01:30pm 27.0 20.1 14.1 45 7.7 ENE 43 52 23 28 1013.4 - 0.0
26/01:00pm 26.8 19.2 13.5 44 7.8 ENE 46 54 25 29 1014.0 - 0.0
26/12:30pm 26.6 18.5 13.3 43 7.8 ENE 48 57 26 31 1014.3 - 0.0
26/12:00pm 26.6 19.1 14.0 46 7.5 ENE 46 57 25 31 1014.6 1014.6 0.0
26/11:30am 26.6 18.6 12.3 41 8.3 ENE 46 54 25 29 1014.8 - 0.0
26/11:00am 26.5 18.6 13.9 45 7.5 ENE 48 56 26 30 1015.1 - 0.0
26/10:30am 26.1 18.5 13.6 46 7.4 ENE 46 54 25 29 1015.3 - 0.0
26/10:00am 25.9 17.5 12.4 43 7.8 ENE 48 57 26 31 1015.5 - 0.0
26/09:30am 25.8 18.4 14.3 49 6.8 ENE 46 56 25 30 1015.5 - 0.0
26/09:00am 25.7 17.5 14.2 49 6.8 ENE 50 59 27 32 1015.2 1015.2 0.0
26/08:30am 25.8 17.8 12.3 43 7.8 ENE 46 56 25 30 1014.9 - 0.0
26/08:00am 25.6 18.0 13.5 47 7.1 ENE 46 52 25 28 1014.7 - 0.0
26/07:30am 25.6 18.0 13.5 47 7.1 ENE 46 56 25 30 1014.5 - 0.0
26/07:00am 25.7 18.6 13.9 48 7.0 ENE 44 52 24 28 1013.9 - 0.0
26/06:30am 25.9 18.9 13.7 47 7.2 E 43 50 23 27 1013.8 - 0.0
26/06:00am 25.8 19.0 13.0 45 7.5 ENE 41 50 22 27 1013.8 1013.8 0.0
26/05:30am 25.8 20.3 15.8 54 6.1 E 39 44 21 24 1013.5 - 0.0
26/05:00am 25.9 20.1 15.0 51 6.6 E 39 46 21 25 1013.4 - 0.0
26/04:30am 25.9 19.8 14.1 48 7.0 E 39 50 21 27 1013.2 - 0.0
26/04:00am 25.8 21.6 16.1 55 5.9 E 33 41 18 22 1013.1 - 0.0
26/03:30am 26.0 20.3 14.1 47 7.1 E 37 44 20 24 1013.1 - 0.0
26/03:00am 25.9 21.4 16.5 56 5.8 E 35 44 19 24 1013.1 1013.1 0.0
26/02:30am 25.9 21.4 15.3 52 6.4 E 33 39 18 21 1013.3 - 0.0
26/02:00am 26.0 21.3 16.8 57 5.7 E 37 44 20 24 1013.3 - 0.0
26/01:30am 25.8 22.2 17.2 59 5.4 ENE 32 37 17 20 1013.6 - 0.0
26/01:00am 25.9 21.5 15.6 53 6.3 ENE 33 39 18 21 1013.8 - 0.0
26/12:30am 25.2 21.7 17.4 62 4.9 ENE 32 35 17 19 1014.0 - 0.0
26/12:00am 25.9 22.5 16.7 57 5.7 E 30 35 16 19 1014.2 1014.2 0.0
 
Date/Time
WST
Temp
°C
App
Temp
°C
Dew
Point
Rel
Hum
%
Delta-T
°C
Wind Press
QNH
hPa
Press
MSL
hPa
Rain
since 9 am
mm
Dir
 
Spd
km/h
Gust
km/h
Spd
kts
Gust
kts
25/11:30pm 26.0 22.2 16.8 57 5.7 E 32 35 17 19 1014.3 - 0.0
25/11:00pm 26.0 22.9 17.4 59 5.4 E 30 35 16 19 1014.5 - 0.0
25/10:30pm 26.0 22.7 17.9 61 5.1 ENE 32 35 17 19 1014.5 - 0.0
25/10:00pm 26.1 23.4 18.5 63 4.8 ENE 30 35 16 19 1014.6 - 0.0
25/09:30pm 26.2 23.1 18.3 61 5.0 ENE 32 35 17 19 1014.4 - 0.0
25/09:00pm 26.0 22.8 18.7 64 4.7 ENE 33 41 18 22 1014.3 1014.3 0.0
25/08:30pm 26.0 22.5 18.7 64 4.7 ENE 35 39 19 21 1014.1 - 0.0
25/08:00pm 26.2 22.5 18.3 61 5.0 ENE 35 41 19 22 1013.8 - 0.0
25/07:30pm 26.4 23.1 18.3 61 5.1 ENE 33 39 18 21 1013.5 - 0.0
25/07:00pm 26.6 22.5 18.2 60 5.3 ENE 37 43 20 23 1012.9 - 0.0
25/06:30pm 26.5 22.1 17.6 58 5.6 ENE 37 44 20 24 1012.5 - 0.0
25/06:00pm 26.6 21.9 17.7 58 5.6 ENE 39 43 21 23 1012.3 1012.3 0.0
25/05:30pm 26.6 22.0 17.1 56 5.9 ENE 37 44 20 24 1012.2 - 0.0
25/05:00pm 26.6 22.0 17.9 59 5.5 ENE 39 44 21 24 1012.0 - 0.0
25/04:30pm 26.6 22.5 18.2 60 5.3 ENE 37 43 20 23 1012.0 - 0.0
25/04:00pm 26.8 21.5 16.4 53 6.4 ENE 39 44 21 24 1011.9 - 0.0
25/03:30pm 27.1 21.0 16.1 51 6.8 ENE 43 50 23 27 1011.8 - 0.0
25/03:00pm 27.0 20.9 16.6 53 6.4 ENE 44 52 24 28 1011.6 1011.6 0.0
25/02:30pm 27.2 21.0 16.5 52 6.6 ENE 44 50 24 27 1011.6 - 0.0
25/02:00pm 27.2 20.1 14.9 47 7.4 ENE 46 56 25 30 1011.7 - 0.0
25/01:30pm 27.1 20.7 15.8 50 6.9 ENE 44 52 24 28 1012.2 - 0.0
25/01:00pm 27.0 20.5 15.1 48 7.2 ENE 43 54 23 29 1012.5 - 0.0
25/12:30pm 27.0 19.9 15.1 48 7.2 ENE 46 52 25 28 1012.8 - 0.0
25/12:00pm 26.7 20.4 14.5 47 7.3 ENE 41 50 22 27 1013.2 1013.2 0.0
25/11:30am 26.4 19.4 14.2 47 7.3 ENE 44 52 24 28 1013.5 - 0.0
25/11:00am 26.3 19.5 14.7 48 7.0 ENE 44 54 24 29 1013.9 - 0.0
25/10:30am 26.1 19.1 14.2 48 7.1 ENE 44 54 24 29 1014.0 - 0.0
25/10:00am 25.9 19.4 15.6 53 6.3 ENE 44 52 24 28 1014.1 - 0.0
25/09:30am 25.7 18.9 14.8 51 6.5 ENE 44 54 24 29 1014.1 - 0.0
25/09:00am 25.4 17.7 13.3 47 7.1 ENE 46 57 25 31 1013.9 1013.9 0.0
25/08:30am 25.4 17.9 13.9 49 6.8 ENE 46 57 25 31 1013.6 - 0.0
25/08:00am 25.2 17.5 13.4 48 6.9 E 46 54 25 29 1013.5 - 0.0
25/07:30am 25.2 17.5 13.4 48 6.9 E 46 54 25 29 1013.4 - 0.0
25/07:00am 25.4 17.9 13.9 49 6.8 E 46 54 25 29 1013.0 - 0.0
25/06:30am 25.4 18.7 15.1 53 6.2 E 44 52 24 28 1012.5 - 0.0
25/06:00am 25.6 20.0 15.6 54 6.1 E 39 48 21 26 1012.0 1012.0 0.0
25/05:30am 25.7 21.4 16.8 58 5.5 E 35 44 19 24 1011.7 - 0.0
25/05:00am 25.9 21.1 16.5 56 5.8 ENE 37 44 20 24 1011.6 - 0.0
25/04:30am 25.9 20.8 16.7 57 5.7 ENE 39 46 21 25 1011.5 - 0.0
25/04:00am 25.9 21.6 17.0 58 5.5 ENE 35 43 19 23 1011.5 - 0.0
25/03:30am 25.8 22.3 18.0 62 4.9 E 33 41 18 22 1011.6 - 0.0
25/03:00am 25.8 21.8 16.6 56 5.7 E 33 43 18 23 1011.9 1011.9 0.0
25/02:30am 25.8 21.3 16.4 56 5.8 E 35 41 19 22 1011.9 - 0.0
25/02:00am 25.9 21.0 15.3 52 6.4 E 35 41 19 22 1012.0 - 0.0
25/01:30am 25.9 22.0 17.0 58 5.5 E 33 39 18 21 1012.3 - 0.0
25/01:00am 25.7 22.1 17.1 59 5.3 E 32 37 17 20 1012.5 - 0.0
25/12:30am 25.6 22.3 17.0 59 5.3 E 30 35 16 19 1012.7 - 0.0
25/12:00am 25.5 21.9 17.2 60 5.2 E 32 37 17 20 1012.9 1012.9 0.0
 
Date/Time
WST
Temp
°C
App
Temp
°C
Dew
Point
Rel
Hum
%
Delta-T
°C
Wind Press
QNH
hPa
Press
MSL
hPa
Rain
since 9 am
mm
Dir
 
Spd
km/h
Gust
km/h
Spd
kts
Gust
kts
24/11:30pm 25.5 21.6 16.4 57 5.6 E 32 37 17 20 1012.9 - 0.0
24/11:00pm 25.6 22.5 18.3 64 4.6 E 32 37 17 20 1013.1 - 0.0
24/10:30pm 25.4 25.0 20.2 73 3.4 ESE 22 28 12 15 1013.3 - 0.0
24/10:00pm 25.8 24.2 20.1 71 3.7 E 28 32 15 17 1013.3 - 0.0
24/09:30pm 26.0 24.2 19.6 68 4.1 ENE 28 33 15 18 1013.1 - 0.0
24/09:00pm 26.1 24.4 19.7 68 4.1 ENE 28 35 15 19 1013.0 1013.0 0.0
24/08:30pm 26.0 24.9 20.3 71 3.7 NE 26 30 14 16 1012.9 - 0.0
24/08:00pm 25.7 25.5 20.5 73 3.4 NE 22 28 12 15 1012.6 - 0.0
24/07:30pm 25.5 25.8 20.7 75 3.1 NE 20 24 11 13 1012.2 - 0.0
24/07:00pm 25.9 25.9 20.2 71 3.7 NNE 20 24 11 13 1012.0 - 0.0
24/06:30pm 25.9 25.9 20.2 71 3.7 NE 20 24 11 13 1011.9 - 0.0
24/06:00pm 26.0 25.9 19.9 69 4.0 NNE 20 26 11 14 1011.7 1011.7 0.0
24/05:30pm 26.0 25.5 19.9 69 4.0 NE 22 24 12 13 1011.6 - 0.0
24/05:00pm 26.4 25.9 19.0 63 4.7 NE 20 24 11 13 1011.4 - 0.0
24/04:30pm 26.5 25.9 18.9 63 4.9 NE 20 24 11 13 1011.3 - 0.0
24/04:00pm 26.7 26.0 18.6 61 5.2 NE 20 22 11 12 1011.4 - 0.0
24/03:30pm 26.5 26.0 18.6 62 5.0 ENE 19 20 10 11 1011.5 - 0.0
24/03:00pm 26.5 25.4 17.8 58 5.5 ENE 20 24 11 13 1011.6 1011.6 0.0
24/02:30pm 26.7 25.3 18.0 59 5.5 NE 22 26 12 14 1011.6 - 0.0
24/02:00pm 26.4 24.8 17.5 58 5.6 ENE 22 28 12 15 1011.8 - 0.0
24/01:30pm 26.5 24.9 16.4 53 6.2 ENE 20 26 11 14 1012.2 - 0.0
24/01:00pm 26.7 25.4 17.2 56 5.9 E 20 22 11 12 1012.6 - 0.0
24/12:30pm 26.3 24.8 16.8 56 5.9 E 20 24 11 13 1012.9 - 0.0
24/12:00pm 26.1 24.2 16.6 55 5.9 E 22 24 12 13 1013.2 1013.2 0.0
24/11:30am 25.6 23.9 17.3 60 5.2 E 22 26 12 14 1013.5 - 0.0
24/11:00am 25.0 21.8 16.2 58 5.4 E 28 35 15 19 1013.5 - 0.0
24/10:30am 24.7 21.1 16.2 59 5.2 E 30 35 16 19 1013.8 - 0.0
24/10:00am 24.5 21.1 15.7 58 5.3 E 28 33 15 18 1014.0 - 0.0
24/09:30am 23.7 19.5 15.7 61 4.8 E 32 37 17 20 1014.2 - 0.0
24/09:00am 23.8 18.8 16.1 62 4.7 E 37 44 20 24 1013.9 1013.9 0.0
24/08:30am 23.9 18.1 15.9 61 4.8 E 41 46 22 25 1013.8 - 0.0
24/08:00am 23.7 18.9 15.7 61 4.8 E 35 43 19 23 1013.7 - 0.0
24/07:30am 23.2 18.7 15.5 62 4.6 E 33 39 18 21 1013.5 - 0.0
24/07:00am 23.3 19.6 16.1 64 4.4 E 30 35 16 19 1013.3 - 0.0
24/06:30am 22.9 18.9 15.2 62 4.6 ESE 30 37 16 20 1013.1 - 0.0
24/06:00am 23.2 19.0 15.8 63 4.5 ESE 32 39 17 21 1012.7 1012.7 0.0
24/05:30am 23.5 19.6 16.5 65 4.3 ESE 32 37 17 20 1012.4 - 0.0
24/05:00am 23.6 19.7 16.9 66 4.1 ESE 33 39 18 21 1012.1 - 0.0
24/04:30am 24.0 20.5 17.5 67 4.0 E 32 37 17 20 1012.0 - 0.0
24/04:00am 24.1 20.6 17.4 66 4.2 E 32 37 17 20 1012.2 - 0.0
24/03:30am 23.9 21.2 17.6 68 3.9 E 28 33 15 18 1012.4 - 0.0
24/03:00am 23.9 21.7 17.9 69 3.8 ESE 26 30 14 16 1012.7 1012.7 0.0
24/02:30am 24.1 22.8 19.8 77 2.8 ESE 26 30 14 16 1012.6 - 0.0
24/02:00am 24.7 22.2 18.9 70 3.7 E 30 37 16 20 1012.4 - 0.0
24/01:30am 24.4 22.0 18.3 69 3.8 E 28 37 15 20 1012.4 - 0.0
24/01:29am 24.5 22.3 18.7 70 3.7 E 28 37 15 20 1012.4 - 0.0
24/01:00am 21.8 23.7 17.6 77 2.6 SSW 4 6 2 3 1012.6 - 0.0
24/12:30am 21.2 22.5 17.6 80 2.2 WSW 7 9 4 5 1012.7 - 0.0
24/12:00am 20.7 21.8 17.1 80 2.2 WSW 7 7 4 4 1012.6 1012.6 0.0
 
Date/Time
WST
Temp
°C
App
Temp
°C
Dew
Point
Rel
Hum
%
Delta-T
°C
Wind Press
QNH
hPa
Press
MSL
hPa
Rain
since 9 am
mm
Dir
 
Spd
km/h
Gust
km/h
Spd
kts
Gust
kts
23/11:30pm 21.1 22.4 17.1 78 2.4 WSW 6 7 3 4 1012.8 - 0.0
23/11:00pm 21.1 22.1 16.9 77 2.6 W 7 7 4 4 1013.1 - 0.0
23/10:30pm 21.0 22.1 17.2 79 2.3 WNW 7 9 4 5 1013.3 - 0.0
23/10:00pm 20.7 21.9 17.3 81 2.1 N 7 7 4 4 1013.2 - 0.0
23/09:30pm 21.0 23.4 17.0 78 2.4 CALM 0 0 0 0 1013.2 - 0.0
23/09:00pm 21.5 23.9 17.1 76 2.7 CALM 0 0 0 0 1013.1 1013.1 0.0
23/08:30pm 22.6 25.1 17.3 72 3.3 CALM 0 0 0 0 1012.9 - 0.0
23/08:00pm 22.5 24.7 16.5 69 3.7 CALM 0 0 0 0 1012.7 - 0.0
23/07:30pm 22.6 24.8 16.6 69 3.7 CALM 0 0 0 0 1012.2 - 0.0

Other Formats:

Comma delimited format used in spreadsheet applications
http://www.bom.gov.au/fwo/IDW60801/IDW60801.95304.axf

JavaScript Object Notation format (JSON) in row-major order
http://www.bom.gov.au/fwo/IDW60801/IDW60801.95304.json